sensor_id;sensor_type;location;lat;lon;timestamp;temperature;humidity
5940;DHT22;2995;-31.998;115.906;2022-12-18T00:00:24;27.60;99.90
5940;DHT22;2995;-31.998;115.906;2022-12-18T00:02:56;28.00;99.90
5940;DHT22;2995;-31.998;115.906;2022-12-18T00:05:27;28.30;99.90
5940;DHT22;2995;-31.998;115.906;2022-12-18T00:07:59;28.30;99.90
5940;DHT22;2995;-31.998;115.906;2022-12-18T00:10:30;28.50;99.90
5940;DHT22;2995;-31.998;115.906;2022-12-18T00:13:01;28.60;99.90
5940;DHT22;2995;-31.998;115.906;2022-12-18T00:15:34;28.90;99.90
5940;DHT22;2995;-31.998;115.906;2022-12-18T00:18:06;29.00;99.90
5940;DHT22;2995;-31.998;115.906;2022-12-18T00:20:38;29.10;99.90
5940;DHT22;2995;-31.998;115.906;2022-12-18T00:23:10;29.20;99.90
5940;DHT22;2995;-31.998;115.906;2022-12-18T00:25:41;29.70;99.90
5940;DHT22;2995;-31.998;115.906;2022-12-18T00:28:12;29.80;99.90
5940;DHT22;2995;-31.998;115.906;2022-12-18T00:30:46;30.00;99.90
5940;DHT22;2995;-31.998;115.906;2022-12-18T00:33:19;30.10;99.90
5940;DHT22;2995;-31.998;115.906;2022-12-18T00:35:50;30.30;99.90
5940;DHT22;2995;-31.998;115.906;2022-12-18T00:38:22;30.70;99.90
5940;DHT22;2995;-31.998;115.906;2022-12-18T00:40:53;30.60;99.90
5940;DHT22;2995;-31.998;115.906;2022-12-18T00:43:24;30.50;99.90
5940;DHT22;2995;-31.998;115.906;2022-12-18T00:45:56;30.40;99.90
5940;DHT22;2995;-31.998;115.906;2022-12-18T00:48:27;30.20;99.90
5940;DHT22;2995;-31.998;115.906;2022-12-18T00:50:58;30.10;99.90
5940;DHT22;2995;-31.998;115.906;2022-12-18T00:53:29;29.70;99.90
5940;DHT22;2995;-31.998;115.906;2022-12-18T00:56:01;29.40;99.90
5940;DHT22;2995;-31.998;115.906;2022-12-18T00:58:32;29.40;99.90
5940;DHT22;2995;-31.998;115.906;2022-12-18T01:01:05;29.50;99.90
5940;DHT22;2995;-31.998;115.906;2022-12-18T01:03:37;29.80;99.90
5940;DHT22;2995;-31.998;115.906;2022-12-18T01:06:09;30.00;99.90
5940;DHT22;2995;-31.998;115.906;2022-12-18T01:08:40;30.40;99.90
5940;DHT22;2995;-31.998;115.906;2022-12-18T01:11:13;30.50;99.90
5940;DHT22;2995;-31.998;115.906;2022-12-18T01:13:45;31.30;99.90
5940;DHT22;2995;-31.998;115.906;2022-12-18T01:16:19;31.50;99.90
5940;DHT22;2995;-31.998;115.906;2022-12-18T01:18:52;31.20;99.90
5940;DHT22;2995;-31.998;115.906;2022-12-18T01:21:24;31.20;99.90
5940;DHT22;2995;-31.998;115.906;2022-12-18T01:23:56;31.30;99.90
5940;DHT22;2995;-31.998;115.906;2022-12-18T01:26:27;31.70;99.90
5940;DHT22;2995;-31.998;115.906;2022-12-18T01:28:59;31.50;99.90
5940;DHT22;2995;-31.998;115.906;2022-12-18T01:31:33;31.70;99.90
5940;DHT22;2995;-31.998;115.906;2022-12-18T01:34:05;31.80;99.90
5940;DHT22;2995;-31.998;115.906;2022-12-18T01:36:37;31.60;99.90
5940;DHT22;2995;-31.998;115.906;2022-12-18T01:39:12;31.90;99.90
5940;DHT22;2995;-31.998;115.906;2022-12-18T01:41:43;32.00;99.90
5940;DHT22;2995;-31.998;115.906;2022-12-18T01:44:58;32.20;99.90
5940;DHT22;2995;-31.998;115.906;2022-12-18T01:47:35;32.30;99.90
5940;DHT22;2995;-31.998;115.906;2022-12-18T01:50:10;33.10;99.90
5940;DHT22;2995;-31.998;115.906;2022-12-18T01:52:45;32.90;99.90
5940;DHT22;2995;-31.998;115.906;2022-12-18T01:55:22;33.00;99.90
5940;DHT22;2995;-31.998;115.906;2022-12-18T01:57:57;32.30;99.90
5940;DHT22;2995;-31.998;115.906;2022-12-18T02:00:30;32.00;99.90
5940;DHT22;2995;-31.998;115.906;2022-12-18T02:03:03;31.80;99.90
5940;DHT22;2995;-31.998;115.906;2022-12-18T02:05:44;31.60;99.90
5940;DHT22;2995;-31.998;115.906;2022-12-18T02:08:19;31.50;99.90
5940;DHT22;2995;-31.998;115.906;2022-12-18T02:10:58;31.30;99.90
5940;DHT22;2995;-31.998;115.906;2022-12-18T02:13:40;31.00;99.90
5940;DHT22;2995;-31.998;115.906;2022-12-18T02:16:20;30.90;99.90
5940;DHT22;2995;-31.998;115.906;2022-12-18T02:18:58;30.90;99.90
5940;DHT22;2995;-31.998;115.906;2022-12-18T02:21:35;31.50;99.90
5940;DHT22;2995;-31.998;115.906;2022-12-18T02:24:18;31.30;99.90
5940;DHT22;2995;-31.998;115.906;2022-12-18T02:26:58;31.20;99.90
5940;DHT22;2995;-31.998;115.906;2022-12-18T02:29:34;31.30;99.90
5940;DHT22;2995;-31.998;115.906;2022-12-18T02:32:10;30.80;99.90
5940;DHT22;2995;-31.998;115.906;2022-12-18T02:34:44;30.70;99.90
5940;DHT22;2995;-31.998;115.906;2022-12-18T02:37:20;31.20;99.90
5940;DHT22;2995;-31.998;115.906;2022-12-18T02:39:54;31.50;99.90
5940;DHT22;2995;-31.998;115.906;2022-12-18T02:42:29;31.70;99.90
5940;DHT22;2995;-31.998;115.906;2022-12-18T02:45:00;31.70;99.90
5940;DHT22;2995;-31.998;115.906;2022-12-18T02:47:34;32.00;99.90
5940;DHT22;2995;-31.998;115.906;2022-12-18T02:50:13;32.10;99.90
5940;DHT22;2995;-31.998;115.906;2022-12-18T02:52:55;32.00;99.90
5940;DHT22;2995;-31.998;115.906;2022-12-18T02:55:37;32.20;99.90
5940;DHT22;2995;-31.998;115.906;2022-12-18T02:58:18;32.40;99.90
5940;DHT22;2995;-31.998;115.906;2022-12-18T03:00:56;32.60;99.90
5940;DHT22;2995;-31.998;115.906;2022-12-18T03:03:33;32.50;99.20
5940;DHT22;2995;-31.998;115.906;2022-12-18T03:06:07;32.50;99.40
5940;DHT22;2995;-31.998;115.906;2022-12-18T03:08:42;32.60;98.70
5940;DHT22;2995;-31.998;115.906;2022-12-18T03:11:15;32.70;97.90
5940;DHT22;2995;-31.998;115.906;2022-12-18T03:14:09;32.70;98.20
5940;DHT22;2995;-31.998;115.906;2022-12-18T03:16:41;32.70;97.40
5940;DHT22;2995;-31.998;115.906;2022-12-18T03:19:17;32.40;97.90
5940;DHT22;2995;-31.998;115.906;2022-12-18T03:21:50;32.50;97.30
5940;DHT22;2995;-31.998;115.906;2022-12-18T03:24:23;32.50;98.10
5940;DHT22;2995;-31.998;115.906;2022-12-18T03:26:57;32.50;98.20
5940;DHT22;2995;-31.998;115.906;2022-12-18T03:29:35;32.70;98.00
5940;DHT22;2995;-31.998;115.906;2022-12-18T03:32:11;32.90;97.60
5940;DHT22;2995;-31.998;115.906;2022-12-18T03:34:45;32.90;97.10
5940;DHT22;2995;-31.998;115.906;2022-12-18T03:37:19;33.20;96.00
5940;DHT22;2995;-31.998;115.906;2022-12-18T03:39:50;32.90;95.50
5940;DHT22;2995;-31.998;115.906;2022-12-18T03:42:27;32.90;95.50
5940;DHT22;2995;-31.998;115.906;2022-12-18T03:45:06;33.20;95.50
5940;DHT22;2995;-31.998;115.906;2022-12-18T03:47:41;32.90;95.50
5940;DHT22;2995;-31.998;115.906;2022-12-18T03:50:20;33.00;93.70
5940;DHT22;2995;-31.998;115.906;2022-12-18T03:52:57;32.90;94.30
5940;DHT22;2995;-31.998;115.906;2022-12-18T03:55:30;32.70;94.90
5940;DHT22;2995;-31.998;115.906;2022-12-18T03:58:04;32.90;95.10
5940;DHT22;2995;-31.998;115.906;2022-12-18T04:00:38;32.90;93.60
5940;DHT22;2995;-31.998;115.906;2022-12-18T04:03:11;32.90;92.60
5940;DHT22;2995;-31.998;115.906;2022-12-18T04:05:47;32.50;93.00
5940;DHT22;2995;-31.998;115.906;2022-12-18T04:08:20;32.80;93.20
5940;DHT22;2995;-31.998;115.906;2022-12-18T04:10:51;32.80;92.10
5940;DHT22;2995;-31.998;115.906;2022-12-18T04:13:28;32.50;92.90
5940;DHT22;2995;-31.998;115.906;2022-12-18T04:16:02;32.90;93.10
5940;DHT22;2995;-31.998;115.906;2022-12-18T04:18:33;33.30;92.60
5940;DHT22;2995;-31.998;115.906;2022-12-18T04:21:05;33.50;90.80
5940;DHT22;2995;-31.998;115.906;2022-12-18T04:23:36;33.60;91.10
5940;DHT22;2995;-31.998;115.906;2022-12-18T04:26:07;33.50;91.20
5940;DHT22;2995;-31.998;115.906;2022-12-18T04:28:38;33.00;91.20
5940;DHT22;2995;-31.998;115.906;2022-12-18T04:31:12;32.70;90.70
5940;DHT22;2995;-31.998;115.906;2022-12-18T04:33:43;32.70;90.70
5940;DHT22;2995;-31.998;115.906;2022-12-18T04:36:14;32.80;91.20
5940;DHT22;2995;-31.998;115.906;2022-12-18T04:38:46;32.70;90.90
5940;DHT22;2995;-31.998;115.906;2022-12-18T04:41:18;32.80;91.30
5940;DHT22;2995;-31.998;115.906;2022-12-18T04:43:49;33.00;91.00
5940;DHT22;2995;-31.998;115.906;2022-12-18T04:46:22;33.30;91.50
5940;DHT22;2995;-31.998;115.906;2022-12-18T04:48:53;33.70;91.40
5940;DHT22;2995;-31.998;115.906;2022-12-18T04:51:25;34.10;90.70
5940;DHT22;2995;-31.998;115.906;2022-12-18T04:53:56;33.30;89.90
5940;DHT22;2995;-31.998;115.906;2022-12-18T04:56:27;33.20;90.30
5940;DHT22;2995;-31.998;115.906;2022-12-18T04:58:58;33.40;90.10
5940;DHT22;2995;-31.998;115.906;2022-12-18T05:01:31;33.80;89.70
5940;DHT22;2995;-31.998;115.906;2022-12-18T05:04:03;33.80;88.60
5940;DHT22;2995;-31.998;115.906;2022-12-18T05:06:34;33.80;89.60
5940;DHT22;2995;-31.998;115.906;2022-12-18T05:09:06;33.80;87.40
5940;DHT22;2995;-31.998;115.906;2022-12-18T05:11:37;33.90;88.70
5940;DHT22;2995;-31.998;115.906;2022-12-18T05:14:08;33.90;90.00
5940;DHT22;2995;-31.998;115.906;2022-12-18T05:16:41;33.90;88.20
5940;DHT22;2995;-31.998;115.906;2022-12-18T05:19:12;34.00;88.20
5940;DHT22;2995;-31.998;115.906;2022-12-18T05:21:44;33.80;86.00
5940;DHT22;2995;-31.998;115.906;2022-12-18T05:24:15;33.50;84.60
5940;DHT22;2995;-31.998;115.906;2022-12-18T05:26:47;32.90;85.10
5940;DHT22;2995;-31.998;115.906;2022-12-18T05:29:18;33.30;85.30
5940;DHT22;2995;-31.998;115.906;2022-12-18T05:31:51;33.80;87.60
5940;DHT22;2995;-31.998;115.906;2022-12-18T05:34:23;33.50;84.90
5940;DHT22;2995;-31.998;115.906;2022-12-18T05:36:55;33.30;85.00
5940;DHT22;2995;-31.998;115.906;2022-12-18T05:39:26;33.30;85.20
5940;DHT22;2995;-31.998;115.906;2022-12-18T05:41:57;33.20;85.60
5940;DHT22;2995;-31.998;115.906;2022-12-18T05:44:29;33.80;85.60
5940;DHT22;2995;-31.998;115.906;2022-12-18T05:47:02;34.50;83.30
5940;DHT22;2995;-31.998;115.906;2022-12-18T05:49:34;34.30;83.10
5940;DHT22;2995;-31.998;115.906;2022-12-18T05:52:05;34.50;82.30
5940;DHT22;2995;-31.998;115.906;2022-12-18T05:54:36;34.60;82.40
5940;DHT22;2995;-31.998;115.906;2022-12-18T05:57:08;34.70;83.00
5940;DHT22;2995;-31.998;115.906;2022-12-18T05:59:39;35.00;83.50
5940;DHT22;2995;-31.998;115.906;2022-12-18T06:02:13;34.90;80.60
5940;DHT22;2995;-31.998;115.906;2022-12-18T06:04:44;34.90;82.00
5940;DHT22;2995;-31.998;115.906;2022-12-18T06:07:16;35.30;80.50
5940;DHT22;2995;-31.998;115.906;2022-12-18T06:09:48;34.80;77.70
5940;DHT22;2995;-31.998;115.906;2022-12-18T06:12:19;34.50;78.90
5940;DHT22;2995;-31.998;115.906;2022-12-18T06:14:50;34.50;79.70
5940;DHT22;2995;-31.998;115.906;2022-12-18T06:17:27;34.30;78.50
5940;DHT22;2995;-31.998;115.906;2022-12-18T06:19:59;33.40;79.10
5940;DHT22;2995;-31.998;115.906;2022-12-18T06:22:32;33.20;78.90
5940;DHT22;2995;-31.998;115.906;2022-12-18T06:25:03;33.10;80.10
5940;DHT22;2995;-31.998;115.906;2022-12-18T06:27:34;33.10;78.70
5940;DHT22;2995;-31.998;115.906;2022-12-18T06:30:06;32.90;79.40
5940;DHT22;2995;-31.998;115.906;2022-12-18T06:32:40;33.10;80.00
5940;DHT22;2995;-31.998;115.906;2022-12-18T06:35:11;33.20;78.80
5940;DHT22;2995;-31.998;115.906;2022-12-18T06:37:42;33.20;77.20
5940;DHT22;2995;-31.998;115.906;2022-12-18T06:40:14;33.30;78.20
5940;DHT22;2995;-31.998;115.906;2022-12-18T06:42:45;33.50;76.50
5940;DHT22;2995;-31.998;115.906;2022-12-18T06:45:17;33.60;77.30
5940;DHT22;2995;-31.998;115.906;2022-12-18T06:47:50;33.80;76.90
5940;DHT22;2995;-31.998;115.906;2022-12-18T06:50:21;34.00;76.30
5940;DHT22;2995;-31.998;115.906;2022-12-18T06:52:53;34.10;77.10
5940;DHT22;2995;-31.998;115.906;2022-12-18T06:55:24;34.40;76.50
5940;DHT22;2995;-31.998;115.906;2022-12-18T06:57:55;34.80;78.10
5940;DHT22;2995;-31.998;115.906;2022-12-18T07:00:27;34.30;77.30
5940;DHT22;2995;-31.998;115.906;2022-12-18T07:03:00;34.10;77.10
5940;DHT22;2995;-31.998;115.906;2022-12-18T07:05:31;33.90;76.20
5940;DHT22;2995;-31.998;115.906;2022-12-18T07:08:03;33.60;77.30
5940;DHT22;2995;-31.998;115.906;2022-12-18T07:10:34;33.40;75.80
5940;DHT22;2995;-31.998;115.906;2022-12-18T07:13:11;33.30;77.40
5940;DHT22;2995;-31.998;115.906;2022-12-18T07:15:42;33.50;75.80
5940;DHT22;2995;-31.998;115.906;2022-12-18T07:18:16;33.30;75.10
5940;DHT22;2995;-31.998;115.906;2022-12-18T07:20:47;33.20;76.00
5940;DHT22;2995;-31.998;115.906;2022-12-18T07:23:18;33.40;77.30
5940;DHT22;2995;-31.998;115.906;2022-12-18T07:25:50;33.50;76.60
5940;DHT22;2995;-31.998;115.906;2022-12-18T07:28:21;33.30;75.80
5940;DHT22;2995;-31.998;115.906;2022-12-18T07:30:52;33.60;76.30
5940;DHT22;2995;-31.998;115.906;2022-12-18T07:33:25;33.60;78.20
5940;DHT22;2995;-31.998;115.906;2022-12-18T07:35:58;33.80;84.50
5940;DHT22;2995;-31.998;115.906;2022-12-18T07:38:29;33.80;86.30
5940;DHT22;2995;-31.998;115.906;2022-12-18T07:41:02;33.80;88.00
5940;DHT22;2995;-31.998;115.906;2022-12-18T07:43:33;33.80;89.10
5940;DHT22;2995;-31.998;115.906;2022-12-18T07:46:05;33.80;88.70
5940;DHT22;2995;-31.998;115.906;2022-12-18T07:48:38;33.70;88.70
5940;DHT22;2995;-31.998;115.906;2022-12-18T07:51:09;33.70;89.40
5940;DHT22;2995;-31.998;115.906;2022-12-18T07:53:42;33.80;88.50
5940;DHT22;2995;-31.998;115.906;2022-12-18T07:56:14;33.90;89.60
5940;DHT22;2995;-31.998;115.906;2022-12-18T07:58:47;34.00;87.30
5940;DHT22;2995;-31.998;115.906;2022-12-18T08:01:18;33.90;90.30
5940;DHT22;2995;-31.998;115.906;2022-12-18T08:03:51;33.70;90.90
5940;DHT22;2995;-31.998;115.906;2022-12-18T08:06:23;33.40;90.90
5940;DHT22;2995;-31.998;115.906;2022-12-18T08:08:55;33.10;91.30
5940;DHT22;2995;-31.998;115.906;2022-12-18T08:11:27;33.20;91.60
5940;DHT22;2995;-31.998;115.906;2022-12-18T08:13:59;33.40;91.60
5940;DHT22;2995;-31.998;115.906;2022-12-18T08:16:30;33.50;91.00
5940;DHT22;2995;-31.998;115.906;2022-12-18T08:19:04;33.40;91.30
5940;DHT22;2995;-31.998;115.906;2022-12-18T08:21:35;33.30;91.50
5940;DHT22;2995;-31.998;115.906;2022-12-18T08:24:07;33.10;90.90
5940;DHT22;2995;-31.998;115.906;2022-12-18T08:26:39;33.10;90.90
5940;DHT22;2995;-31.998;115.906;2022-12-18T08:29:11;32.90;91.30
5940;DHT22;2995;-31.998;115.906;2022-12-18T08:31:42;33.00;91.80
5940;DHT22;2995;-31.998;115.906;2022-12-18T08:34:16;33.00;91.80
5940;DHT22;2995;-31.998;115.906;2022-12-18T08:36:47;32.80;92.00
5940;DHT22;2995;-31.998;115.906;2022-12-18T08:39:19;32.70;91.90
5940;DHT22;2995;-31.998;115.906;2022-12-18T08:41:50;32.70;92.10
5940;DHT22;2995;-31.998;115.906;2022-12-18T08:44:34;32.80;91.40
5940;DHT22;2995;-31.998;115.906;2022-12-18T08:47:08;32.70;91.30
5940;DHT22;2995;-31.998;115.906;2022-12-18T08:49:41;32.70;91.60
5940;DHT22;2995;-31.998;115.906;2022-12-18T08:52:13;32.40;91.10
5940;DHT22;2995;-31.998;115.906;2022-12-18T08:54:46;32.50;91.10
5940;DHT22;2995;-31.998;115.906;2022-12-18T08:57:17;32.40;91.60
5940;DHT22;2995;-31.998;115.906;2022-12-18T08:59:49;32.30;91.70
5940;DHT22;2995;-31.998;115.906;2022-12-18T09:02:20;32.30;91.80
5940;DHT22;2995;-31.998;115.906;2022-12-18T09:04:53;32.40;91.90
5940;DHT22;2995;-31.998;115.906;2022-12-18T09:07:24;32.30;91.90
5940;DHT22;2995;-31.998;115.906;2022-12-18T09:09:56;32.30;91.70
5940;DHT22;2995;-31.998;115.906;2022-12-18T09:12:27;32.20;91.00
5940;DHT22;2995;-31.998;115.906;2022-12-18T09:14:58;32.10;91.20
5940;DHT22;2995;-31.998;115.906;2022-12-18T09:17:30;32.00;91.60
5940;DHT22;2995;-31.998;115.906;2022-12-18T09:20:03;32.00;91.40
5940;DHT22;2995;-31.998;115.906;2022-12-18T09:22:34;31.80;91.80
5940;DHT22;2995;-31.998;115.906;2022-12-18T09:25:06;31.80;91.60
5940;DHT22;2995;-31.998;115.906;2022-12-18T09:27:37;31.40;91.60
5940;DHT22;2995;-31.998;115.906;2022-12-18T09:30:10;31.50;91.80
5940;DHT22;2995;-31.998;115.906;2022-12-18T09:32:41;31.50;91.60
5940;DHT22;2995;-31.998;115.906;2022-12-18T09:35:14;31.40;91.50
5940;DHT22;2995;-31.998;115.906;2022-12-18T09:37:45;31.30;91.40
5940;DHT22;2995;-31.998;115.906;2022-12-18T09:40:18;31.30;91.50
5940;DHT22;2995;-31.998;115.906;2022-12-18T09:42:54;31.30;91.60
5940;DHT22;2995;-31.998;115.906;2022-12-18T09:45:26;31.20;91.70
5940;DHT22;2995;-31.998;115.906;2022-12-18T09:47:58;31.10;92.00
5940;DHT22;2995;-31.998;115.906;2022-12-18T09:50:34;31.00;91.60
5940;DHT22;2995;-31.998;115.906;2022-12-18T09:53:19;30.90;91.80
5940;DHT22;2995;-31.998;115.906;2022-12-18T09:55:52;30.80;91.90
5940;DHT22;2995;-31.998;115.906;2022-12-18T09:58:31;30.70;91.80
5940;DHT22;2995;-31.998;115.906;2022-12-18T10:01:10;30.80;91.90
5940;DHT22;2995;-31.998;115.906;2022-12-18T10:03:41;30.70;91.80
5940;DHT22;2995;-31.998;115.906;2022-12-18T10:06:18;30.70;91.80
5940;DHT22;2995;-31.998;115.906;2022-12-18T10:08:56;30.80;91.60
5940;DHT22;2995;-31.998;115.906;2022-12-18T10:11:38;30.50;91.40
5940;DHT22;2995;-31.998;115.906;2022-12-18T10:14:18;30.50;91.10
5940;DHT22;2995;-31.998;115.906;2022-12-18T10:16:59;30.20;91.30
5940;DHT22;2995;-31.998;115.906;2022-12-18T10:19:39;30.30;91.40
5940;DHT22;2995;-31.998;115.906;2022-12-18T10:22:41;30.30;91.50
5940;DHT22;2995;-31.998;115.906;2022-12-18T10:25:20;30.20;91.80
5940;DHT22;2995;-31.998;115.906;2022-12-18T10:27:55;30.10;91.80
5940;DHT22;2995;-31.998;115.906;2022-12-18T10:30:28;29.90;91.70
5940;DHT22;2995;-31.998;115.906;2022-12-18T10:33:02;29.80;92.00
5940;DHT22;2995;-31.998;115.906;2022-12-18T10:35:34;29.70;92.10
5940;DHT22;2995;-31.998;115.906;2022-12-18T10:38:22;29.80;92.30
5940;DHT22;2995;-31.998;115.906;2022-12-18T10:40:55;29.70;92.40
5940;DHT22;2995;-31.998;115.906;2022-12-18T10:43:27;29.70;92.50
5940;DHT22;2995;-31.998;115.906;2022-12-18T10:46:12;29.50;92.60
5940;DHT22;2995;-31.998;115.906;2022-12-18T10:48:53;29.40;92.80
5940;DHT22;2995;-31.998;115.906;2022-12-18T10:51:26;29.40;92.80
5940;DHT22;2995;-31.998;115.906;2022-12-18T10:54:01;29.40;93.00
5940;DHT22;2995;-31.998;115.906;2022-12-18T10:56:33;29.40;92.90
5940;DHT22;2995;-31.998;115.906;2022-12-18T10:59:06;29.40;93.20
5940;DHT22;2995;-31.998;115.906;2022-12-18T11:01:48;29.10;93.20
5940;DHT22;2995;-31.998;115.906;2022-12-18T11:04:22;29.10;93.30
5940;DHT22;2995;-31.998;115.906;2022-12-18T11:06:58;29.00;93.60
5940;DHT22;2995;-31.998;115.906;2022-12-18T11:09:33;28.90;94.10
5940;DHT22;2995;-31.998;115.906;2022-12-18T11:12:08;28.80;94.60
5940;DHT22;2995;-31.998;115.906;2022-12-18T11:14:49;29.00;94.00
5940;DHT22;2995;-31.998;115.906;2022-12-18T11:17:22;28.90;94.10
5940;DHT22;2995;-31.998;115.906;2022-12-18T11:19:56;28.70;92.90
5940;DHT22;2995;-31.998;115.906;2022-12-18T11:22:29;28.50;93.40
5940;DHT22;2995;-31.998;115.906;2022-12-18T11:25:05;28.50;93.30
5940;DHT22;2995;-31.998;115.906;2022-12-18T11:27:39;28.40;92.90
5940;DHT22;2995;-31.998;115.906;2022-12-18T11:30:21;28.40;92.90
5940;DHT22;2995;-31.998;115.906;2022-12-18T11:32:59;28.30;92.70
5940;DHT22;2995;-31.998;115.906;2022-12-18T11:35:43;28.30;93.10
5940;DHT22;2995;-31.998;115.906;2022-12-18T11:38:21;28.20;92.80
5940;DHT22;2995;-31.998;115.906;2022-12-18T11:40:58;28.00;92.70
5940;DHT22;2995;-31.998;115.906;2022-12-18T11:43:33;27.90;92.90
5940;DHT22;2995;-31.998;115.906;2022-12-18T11:46:08;28.00;93.10
5940;DHT22;2995;-31.998;115.906;2022-12-18T11:48:45;27.90;92.90
5940;DHT22;2995;-31.998;115.906;2022-12-18T11:51:25;27.70;92.90
5940;DHT22;2995;-31.998;115.906;2022-12-18T11:53:59;27.60;93.10
5940;DHT22;2995;-31.998;115.906;2022-12-18T11:56:35;27.50;93.00
5940;DHT22;2995;-31.998;115.906;2022-12-18T11:59:13;27.40;93.20
5940;DHT22;2995;-31.998;115.906;2022-12-18T12:01:50;27.50;93.30
5940;DHT22;2995;-31.998;115.906;2022-12-18T12:04:41;27.50;93.10
5940;DHT22;2995;-31.998;115.906;2022-12-18T12:07:26;27.40;93.20
5940;DHT22;2995;-31.998;115.906;2022-12-18T12:10:07;27.40;93.40
5940;DHT22;2995;-31.998;115.906;2022-12-18T12:13:03;27.30;93.60
5940;DHT22;2995;-31.998;115.906;2022-12-18T12:15:43;27.30;93.60
5940;DHT22;2995;-31.998;115.906;2022-12-18T12:18:24;27.20;93.70
5940;DHT22;2995;-31.998;115.906;2022-12-18T12:21:05;27.20;93.50
5940;DHT22;2995;-31.998;115.906;2022-12-18T12:23:41;27.20;93.70
5940;DHT22;2995;-31.998;115.906;2022-12-18T12:26:21;27.10;93.60
5940;DHT22;2995;-31.998;115.906;2022-12-18T12:29:16;26.90;93.90
5940;DHT22;2995;-31.998;115.906;2022-12-18T12:32:02;27.00;94.20
5940;DHT22;2995;-31.998;115.906;2022-12-18T12:34:43;26.90;94.00
5940;DHT22;2995;-31.998;115.906;2022-12-18T12:37:24;26.80;94.10
5940;DHT22;2995;-31.998;115.906;2022-12-18T12:40:01;26.80;94.20
5940;DHT22;2995;-31.998;115.906;2022-12-18T12:42:38;26.80;94.40
5940;DHT22;2995;-31.998;115.906;2022-12-18T12:45:33;26.80;94.60
5940;DHT22;2995;-31.998;115.906;2022-12-18T12:48:07;26.50;94.50
5940;DHT22;2995;-31.998;115.906;2022-12-18T12:50:45;26.60;94.60
5940;DHT22;2995;-31.998;115.906;2022-12-18T12:53:24;26.60;94.80
5940;DHT22;2995;-31.998;115.906;2022-12-18T12:55:57;26.70;94.90
5940;DHT22;2995;-31.998;115.906;2022-12-18T12:58:36;26.40;94.70
5940;DHT22;2995;-31.998;115.906;2022-12-18T13:01:17;26.50;95.00
5940;DHT22;2995;-31.998;115.906;2022-12-18T13:04:00;26.30;95.00
5940;DHT22;2995;-31.998;115.906;2022-12-18T13:06:40;26.40;95.60
5940;DHT22;2995;-31.998;115.906;2022-12-18T13:09:13;26.40;95.30
5940;DHT22;2995;-31.998;115.906;2022-12-18T13:11:48;26.40;95.40
5940;DHT22;2995;-31.998;115.906;2022-12-18T13:14:36;26.10;95.50
5940;DHT22;2995;-31.998;115.906;2022-12-18T13:17:31;26.10;96.40
5940;DHT22;2995;-31.998;115.906;2022-12-18T13:20:08;26.10;96.60
5940;DHT22;2995;-31.998;115.906;2022-12-18T13:22:42;25.90;96.10
5940;DHT22;2995;-31.998;115.906;2022-12-18T13:25:33;25.80;96.40
5940;DHT22;2995;-31.998;115.906;2022-12-18T13:28:07;25.80;96.40
5940;DHT22;2995;-31.998;115.906;2022-12-18T13:30:50;25.80;96.50
5940;DHT22;2995;-31.998;115.906;2022-12-18T13:33:39;25.70;96.90
5940;DHT22;2995;-31.998;115.906;2022-12-18T13:36:27;25.80;97.00
5940;DHT22;2995;-31.998;115.906;2022-12-18T13:39:22;25.80;97.30
5940;DHT22;2995;-31.998;115.906;2022-12-18T13:42:31;25.60;96.90
5940;DHT22;2995;-31.998;115.906;2022-12-18T13:45:38;25.70;97.40
5940;DHT22;2995;-31.998;115.906;2022-12-18T13:48:21;25.60;98.00
5940;DHT22;2995;-31.998;115.906;2022-12-18T13:51:06;25.50;97.60
5940;DHT22;2995;-31.998;115.906;2022-12-18T13:53:46;25.60;97.70
5940;DHT22;2995;-31.998;115.906;2022-12-18T13:56:21;25.60;98.10
5940;DHT22;2995;-31.998;115.906;2022-12-18T13:59:14;25.60;98.90
5940;DHT22;2995;-31.998;115.906;2022-12-18T14:01:48;25.60;99.80
5940;DHT22;2995;-31.998;115.906;2022-12-18T14:04:23;25.50;99.70
5940;DHT22;2995;-31.998;115.906;2022-12-18T14:07:04;25.40;98.60
5940;DHT22;2995;-31.998;115.906;2022-12-18T14:09:39;25.20;99.10
5940;DHT22;2995;-31.998;115.906;2022-12-18T14:12:16;25.30;99.90
5940;DHT22;2995;-31.998;115.906;2022-12-18T14:15:09;25.20;99.70
5940;DHT22;2995;-31.998;115.906;2022-12-18T14:17:45;25.10;99.80
5940;DHT22;2995;-31.998;115.906;2022-12-18T14:20:18;25.10;99.90
5940;DHT22;2995;-31.998;115.906;2022-12-18T14:22:52;24.90;99.50
5940;DHT22;2995;-31.998;115.906;2022-12-18T14:25:25;24.90;99.50
5940;DHT22;2995;-31.998;115.906;2022-12-18T14:28:08;24.90;99.70
5940;DHT22;2995;-31.998;115.906;2022-12-18T14:30:43;24.80;99.60
5940;DHT22;2995;-31.998;115.906;2022-12-18T14:33:16;24.80;99.90
5940;DHT22;2995;-31.998;115.906;2022-12-18T14:35:56;24.80;99.90
5940;DHT22;2995;-31.998;115.906;2022-12-18T14:38:32;24.80;99.90
5940;DHT22;2995;-31.998;115.906;2022-12-18T14:41:05;24.80;99.90
5940;DHT22;2995;-31.998;115.906;2022-12-18T14:43:37;24.80;99.90
5940;DHT22;2995;-31.998;115.906;2022-12-18T14:46:28;24.80;99.90
5940;DHT22;2995;-31.998;115.906;2022-12-18T14:49:01;24.70;99.90
5940;DHT22;2995;-31.998;115.906;2022-12-18T14:51:34;24.60;99.90
5940;DHT22;2995;-31.998;115.906;2022-12-18T14:54:16;24.70;99.90
5940;DHT22;2995;-31.998;115.906;2022-12-18T14:56:49;24.60;99.90
5940;DHT22;2995;-31.998;115.906;2022-12-18T14:59:22;24.70;99.90
5940;DHT22;2995;-31.998;115.906;2022-12-18T15:02:00;24.50;99.90
5940;DHT22;2995;-31.998;115.906;2022-12-18T15:04:33;24.50;99.90
5940;DHT22;2995;-31.998;115.906;2022-12-18T15:07:12;24.50;99.90
5940;DHT22;2995;-31.998;115.906;2022-12-18T15:10:02;24.60;99.90
5940;DHT22;2995;-31.998;115.906;2022-12-18T15:12:36;24.40;99.90
5940;DHT22;2995;-31.998;115.906;2022-12-18T15:15:46;24.30;99.90
5940;DHT22;2995;-31.998;115.906;2022-12-18T15:18:19;24.40;99.90
5940;DHT22;2995;-31.998;115.906;2022-12-18T15:20:51;23.80;99.90
5940;DHT22;2995;-31.998;115.906;2022-12-18T15:23:24;23.80;99.90
5940;DHT22;2995;-31.998;115.906;2022-12-18T15:26:02;23.70;99.90
5940;DHT22;2995;-31.998;115.906;2022-12-18T15:28:36;23.60;99.90
5940;DHT22;2995;-31.998;115.906;2022-12-18T15:31:24;23.80;99.90
5940;DHT22;2995;-31.998;115.906;2022-12-18T15:34:10;24.00;99.90
5940;DHT22;2995;-31.998;115.906;2022-12-18T15:36:41;23.90;99.90
5940;DHT22;2995;-31.998;115.906;2022-12-18T15:39:13;23.80;99.90
5940;DHT22;2995;-31.998;115.906;2022-12-18T15:41:46;23.90;99.90
5940;DHT22;2995;-31.998;115.906;2022-12-18T15:44:34;24.00;99.90
5940;DHT22;2995;-31.998;115.906;2022-12-18T15:47:09;23.90;99.90
5940;DHT22;2995;-31.998;115.906;2022-12-18T15:49:41;23.80;99.90
5940;DHT22;2995;-31.998;115.906;2022-12-18T15:52:13;23.90;99.90
5940;DHT22;2995;-31.998;115.906;2022-12-18T15:54:53;23.90;99.90
5940;DHT22;2995;-31.998;115.906;2022-12-18T15:57:43;23.90;99.70
5940;DHT22;2995;-31.998;115.906;2022-12-18T16:00:14;23.80;99.90
5940;DHT22;2995;-31.998;115.906;2022-12-18T16:02:46;23.80;99.60
5940;DHT22;2995;-31.998;115.906;2022-12-18T16:05:17;23.90;99.70